Time;durP1;ratioP1;P1;durP2;ratioP2;P2;SDS_P1;SDS_P2;PMS_P1;PMS_P2;Temp;Humidity;BMP_temperature;BMP_pressure;BME280_temperature;BME280_humidity;BME280_pressure;Samples;Min_cycle;Max_cycle;Signal;HPM_P1;HPM_P2
2022/05/27 00:00:08;;;;;;;2.03;1.10;;;;;;;16.87;59.16;100086.06;338190;29;1191;-70
2022/05/27 00:00:23;;;;;;;2.60;1.15;;;;;;;16.90;59.09;100085.88;339584;29;2082;-69
2022/05/27 00:00:41;;;;;;;3.88;1.27;;;;;;;16.95;59.03;100079.47;338654;29;1904;-69
2022/05/27 00:00:53;;;;;;;2.75;1.30;;;;;;;16.94;58.89;100076.91;338806;29;1896;-69
2022/05/27 00:01:05;;;;;;;2.65;1.40;;;;;;;16.90;59.15;100075.38;339661;29;1039;-70
2022/05/27 00:01:23;;;;;;;3.35;1.55;;;;;;;16.80;59.46;100087.25;339094;29;1854;-71
2022/05/27 00:01:36;;;;;;;4.35;1.65;;;;;;;16.77;59.36;100081.22;338944;29;2000;-70
2022/05/27 00:01:48;;;;;;;3.92;1.50;;;;;;;16.82;59.42;100082.81;339876;29;1328;-70
2022/05/27 00:02:00;;;;;;;4.15;1.50;;;;;;;16.86;59.58;100081.72;340134;29;1100;-70
2022/05/27 00:02:14;;;;;;;3.22;1.40;;;;;;;16.86;59.36;100082.59;338851;29;1740;-69
2022/05/27 00:02:25;;;;;;;3.35;1.30;;;;;;;16.85;59.34;100082.66;338193;29;1513;-70
2022/05/27 00:02:38;;;;;;;3.85;1.30;;;;;;;16.81;59.55;100078.47;337166;29;1198;-70
2022/05/27 00:02:50;;;;;;;3.38;1.30;;;;;;;16.85;59.49;100087.91;337607;29;1067;-70
2022/05/27 00:03:02;;;;;;;2.83;1.25;;;;;;;16.84;59.48;100086.19;337504;29;1091;-69
2022/05/27 00:03:15;;;;;;;3.13;1.17;;;;;;;16.81;59.75;100081.09;336085;29;1889;-70
2022/05/27 00:03:27;;;;;;;2.80;1.20;;;;;;;16.82;59.35;100088.06;337635;29;1470;-68
2022/05/27 00:03:39;;;;;;;2.10;1.27;;;;;;;16.84;59.33;100080.94;338776;29;1071;-69
2022/05/27 00:03:51;;;;;;;2.60;1.30;;;;;;;16.81;59.54;100086.34;338670;29;1628;-69
2022/05/27 00:04:03;;;;;;;5.38;1.33;;;;;;;16.83;59.60;100084.50;337475;29;1047;-70
2022/05/27 00:04:16;;;;;;;6.10;1.42;;;;;;;16.83;59.60;100081.88;337390;29;1226;-71
2022/05/27 00:04:28;;;;;;;3.85;1.42;;;;;;;16.82;59.52;100081.03;337714;29;1264;-70
2022/05/27 00:04:41;;;;;;;2.20;1.20;;;;;;;16.77;59.63;100080.38;338840;29;755;-70
2022/05/27 00:04:53;;;;;;;2.78;1.20;;;;;;;16.75;59.79;100083.09;338084;29;1492;-70
2022/05/27 00:05:06;;;;;;;5.32;1.27;;;;;;;16.74;59.61;100085.78;338212;29;1232;-70
2022/05/27 00:05:20;;;;;;;5.28;1.30;;;;;;;16.76;59.74;100082.19;337651;29;1925;-70
2022/05/27 00:05:32;;;;;;;3.20;1.35;;;;;;;16.73;59.68;100084.09;339056;29;1178;-70
2022/05/27 00:05:48;;;;;;;2.75;1.20;;;;;;;16.70;59.80;100082.50;338620;29;1047;-71
2022/05/27 00:06:00;;;;;;;2.67;1.20;;;;;;;16.70;59.90;100082.50;336871;29;1072;-70
2022/05/27 00:06:12;;;;;;;2.42;1.20;;;;;;;16.72;59.85;100082.38;336849;29;1142;-70
2022/05/27 00:06:25;;;;;;;3.28;1.27;;;;;;;16.73;59.81;100077.06;337265;29;2267;-70
2022/05/27 00:06:37;;;;;;;2.88;1.20;;;;;;;16.78;59.71;100084.69;334386;29;1615;-69
2022/05/27 00:06:49;;;;;;;2.17;1.20;;;;;;;16.75;59.97;100077.84;336868;29;1053;-71
2022/05/27 00:07:01;;;;;;;1.95;1.20;;;;;;;16.78;59.54;100077.69;337063;29;1292;-69
2022/05/27 00:07:13;;;;;;;1.50;1.20;;;;;;;16.84;59.63;100083.56;336499;29;1590;-70
2022/05/27 00:07:25;;;;;;;1.35;1.15;;;;;;;16.77;59.53;100075.97;336698;29;1662;-70
2022/05/27 00:07:37;;;;;;;1.52;1.20;;;;;;;16.79;59.67;100083.78;337005;29;1106;-70
2022/05/27 00:07:49;;;;;;;1.85;1.20;;;;;;;16.82;59.59;100088.06;337906;29;1037;-70
2022/05/27 00:08:01;;;;;;;2.85;1.30;;;;;;;16.76;59.79;100078.69;336750;29;1056;-70
2022/05/27 00:08:13;;;;;;;2.90;1.40;;;;;;;16.77;59.83;100075.97;336427;29;1911;-68
2022/05/27 00:08:25;;;;;;;2.67;1.35;;;;;;;16.81;59.43;100071.47;337867;29;1635;-70
2022/05/27 00:08:38;;;;;;;2.55;1.20;;;;;;;16.84;59.77;100086.19;338285;29;1332;-70
2022/05/27 00:08:50;;;;;;;1.98;1.40;;;;;;;16.84;59.58;100076.56;338468;29;1124;-70
2022/05/27 00:09:04;;;;;;;1.83;1.50;;;;;;;16.88;59.45;100077.22;337311;29;1738;-71
2022/05/27 00:09:16;;;;;;;2.55;1.42;;;;;;;16.87;59.50;100078.19;337906;29;1871;-69
2022/05/27 00:09:28;;;;;;;3.35;1.40;;;;;;;16.88;59.35;100077.22;338182;29;1393;-70
2022/05/27 00:09:40;;;;;;;3.20;1.35;;;;;;;16.86;59.28;100079.09;338381;29;1222;-70
2022/05/27 00:09:52;;;;;;;2.90;1.25;;;;;;;16.85;59.55;100077.41;338221;29;1222;-71
2022/05/27 00:10:05;;;;;;;1.95;1.17;;;;;;;16.77;59.81;100081.22;338211;29;1227;-70
2022/05/27 00:10:17;;;;;;;2.47;1.10;;;;;;;16.82;59.54;100072.28;337755;29;1897;-70
2022/05/27 00:10:29;;;;;;;2.65;1.10;;;;;;;16.81;59.67;100070.59;339597;29;1594;-70
2022/05/27 00:10:42;;;;;;;4.03;1.20;;;;;;;16.86;59.48;100079.97;337996;29;2160;-70
2022/05/27 00:10:55;;;;;;;3.88;1.20;;;;;;;16.87;59.39;100078.19;338119;29;1161;-71
2022/05/27 00:11:07;;;;;;;2.78;1.25;;;;;;;16.86;59.42;100081.72;337833;29;2107;-69
2022/05/27 00:11:22;;;;;;;2.08;1.20;;;;;;;16.88;59.60;100082.47;338391;29;1871;-70
2022/05/27 00:11:35;;;;;;;2.67;1.30;;;;;;;16.89;59.42;100076.31;338686;29;1241;-71
2022/05/27 00:11:47;;;;;;;2.83;1.30;;;;;;;16.88;59.60;100077.22;338762;29;1019;-70
2022/05/27 00:11:59;;;;;;;2.03;1.17;;;;;;;16.89;59.41;100078.94;337924;29;2125;-70
2022/05/27 00:12:11;;;;;;;2.92;1.20;;;;;;;16.83;59.65;100074.00;337302;29;1063;-70
2022/05/27 00:12:23;;;;;;;3.35;1.40;;;;;;;16.87;59.53;100072.91;338277;29;1496;-70
2022/05/27 00:12:35;;;;;;;1.95;1.35;;;;;;;16.87;59.36;100075.53;337709;29;2107;-70
2022/05/27 00:12:47;;;;;;;1.70;1.30;;;;;;;16.78;59.79;100067.19;337800;29;1274;-70
2022/05/27 00:12:59;;;;;;;2.42;1.30;;;;;;;16.84;59.71;100070.44;339396;29;1196;-69
2022/05/27 00:13:11;;;;;;;2.20;1.25;;;;;;;16.84;59.58;100076.56;338086;29;1064;-71
2022/05/27 00:13:23;;;;;;;1.90;1.20;;;;;;;16.84;59.62;100078.31;338052;29;1371;-71
2022/05/27 00:13:36;;;;;;;3.25;1.30;;;;;;;16.84;59.66;100073.06;337612;29;1773;-69
2022/05/27 00:13:50;;;;;;;4.85;1.38;;;;;;;16.83;59.60;100076.63;338477;29;1063;-71
2022/05/27 00:14:02;;;;;;;4.47;1.38;;;;;;;16.80;59.76;100074.97;337798;29;1433;-71
2022/05/27 00:14:15;;;;;;;3.90;1.40;;;;;;;16.82;59.70;100072.28;337549;29;1839;-70
2022/05/27 00:14:27;;;;;;;3.80;1.40;;;;;;;16.83;59.84;100074.00;338215;29;1278;-69
2022/05/27 00:14:39;;;;;;;3.70;1.48;;;;;;;16.81;59.75;100068.84;337025;29;1792;-69
2022/05/27 00:14:51;;;;;;;2.97;1.42;;;;;;;16.83;59.73;100068.75;339131;29;1168;-70
2022/05/27 00:15:05;;;;;;;2.90;1.40;;;;;;;16.85;59.63;100075.63;339504;29;1177;-70
2022/05/27 00:15:17;;;;;;;3.75;1.45;;;;;;;16.88;59.51;100074.59;338115;29;1915;-69
2022/05/27 00:15:29;;;;;;;2.90;1.35;;;;;;;16.84;59.77;100075.69;338117;29;1551;-70
2022/05/27 00:15:41;;;;;;;3.33;1.38;;;;;;;16.87;59.64;100070.28;337897;29;1011;-69
2022/05/27 00:15:53;;;;;;;3.40;1.40;;;;;;;16.84;59.65;100070.44;337126;29;1055;-70
2022/05/27 00:16:05;;;;;;;3.50;1.40;;;;;;;16.85;59.65;100066.91;337361;29;1547;-71
2022/05/27 00:16:18;;;;;;;3.33;1.40;;;;;;;16.84;59.81;100070.44;336488;29;2332;-70
2022/05/27 00:16:30;;;;;;;2.42;1.30;;;;;;;16.80;59.83;100069.72;337500;29;1749;-70
2022/05/27 00:16:42;;;;;;;2.42;1.30;;;;;;;16.81;59.86;100073.22;339492;29;1210;-70
2022/05/27 00:16:54;;;;;;;2.67;1.45;;;;;;;16.80;59.91;100068.88;338630;29;1826;-70
2022/05/27 00:17:07;;;;;;;2.63;1.50;;;;;;;16.76;60.17;100069.03;338705;29;761;-71
2022/05/27 00:17:19;;;;;;;3.40;1.33;;;;;;;16.78;59.98;100074.19;337443;29;1838;-69
2022/05/27 00:17:32;;;;;;;3.97;1.45;;;;;;;16.75;59.99;100067.34;337876;29;1445;-70
2022/05/27 00:17:44;;;;;;;3.72;1.45;;;;;;;16.72;60.12;100078.00;338427;29;1052;-70
2022/05/27 00:17:56;;;;;;;3.03;1.35;;;;;;;16.73;60.07;100071.81;338487;29;1192;-71
2022/05/27 00:18:08;;;;;;;2.65;1.40;;;;;;;16.74;60.16;100076.16;338201;29;1178;-70
2022/05/27 00:18:21;;;;;;;2.30;1.30;;;;;;;16.70;60.30;100074.63;337538;29;1952;-71
2022/05/27 00:18:34;;;;;;;2.63;1.20;;;;;;;16.68;60.46;100070.34;337782;29;1464;-70
2022/05/27 00:18:46;;;;;;;2.92;1.30;;;;;;;16.68;60.32;100070.34;338755;29;735;-70
2022/05/27 00:18:58;;;;;;;2.53;1.45;;;;;;;16.73;60.27;100069.19;338512;29;1298;-70
2022/05/27 00:19:10;;;;;;;2.17;1.30;;;;;;;16.78;60.11;100068.94;338392;29;1016;-70
2022/05/27 00:19:22;;;;;;;3.00;1.30;;;;;;;16.63;60.49;100073.22;337828;29;1898;-70
2022/05/27 00:19:34;;;;;;;6.00;1.20;;;;;;;16.55;60.46;100081.47;338058;29;1501;-70
2022/05/27 00:19:46;;;;;;;5.88;1.23;;;;;;;16.62;60.43;100071.53;338223;29;1265;-70
2022/05/27 00:19:58;;;;;;;3.50;1.30;;;;;;;16.60;60.67;100069.88;337942;29;1861;-70
2022/05/27 00:20:11;;;;;;;2.38;1.27;;;;;;;16.63;60.21;100067.97;338934;29;1063;-70
2022/05/27 00:20:23;;;;;;;1.77;1.30;;;;;;;16.62;60.56;100076.78;341270;28;1196;-69
2022/05/27 00:20:36;;;;;;;2.17;1.20;;;;;;;16.59;60.64;100071.69;338249;29;1088;-69
2022/05/27 00:20:48;;;;;;;2.85;1.17;;;;;;;16.62;60.46;100071.53;338205;29;1564;-70
2022/05/27 00:21:02;;;;;;;2.83;1.13;;;;;;;16.68;60.49;100072.97;338315;29;1211;-71
2022/05/27 00:21:14;;;;;;;2.47;1.20;;;;;;;16.75;60.16;100077.00;337732;29;1657;-69
2022/05/27 00:21:27;;;;;;;3.17;1.38;;;;;;;16.78;59.96;100074.19;339297;29;1538;-70
2022/05/27 00:21:39;;;;;;;3.92;1.40;;;;;;;16.76;59.96;100069.03;339552;29;1107;-70
2022/05/27 00:21:51;;;;;;;5.20;1.45;;;;;;;16.75;60.05;100072.59;339160;29;1746;-69
2022/05/27 00:22:03;;;;;;;3.30;1.30;;;;;;;16.73;60.16;100079.69;339806;29;1967;-69
2022/05/27 00:22:15;;;;;;;4.10;1.38;;;;;;;16.76;59.76;100069.03;340323;29;1893;-69
2022/05/27 00:22:27;;;;;;;3.03;1.20;;;;;;;16.65;60.38;100071.38;338528;29;1475;-70
2022/05/27 00:22:40;;;;;;;2.80;1.30;;;;;;;16.71;60.27;100067.59;337756;29;1863;-70
2022/05/27 00:22:52;;;;;;;3.10;1.48;;;;;;;16.70;60.41;100072.00;337619;29;1605;-70
2022/05/27 00:23:05;;;;;;;2.88;1.38;;;;;;;16.64;60.48;100069.69;339514;29;1101;-70
2022/05/27 00:23:18;;;;;;;2.55;1.20;;;;;;;16.63;60.59;100072.38;337844;29;1916;-71
2022/05/27 00:23:31;;;;;;;3.42;1.20;;;;;;;16.67;60.39;100069.50;338640;29;1401;-70
2022/05/27 00:23:43;;;;;;;3.58;1.20;;;;;;;16.67;60.37;100072.13;338328;29;1113;-70
2022/05/27 00:23:56;;;;;;;3.33;1.30;;;;;;;16.68;60.38;100065.97;339967;29;1168;-69
2022/05/27 00:24:08;;;;;;;2.70;1.20;;;;;;;16.71;60.34;100070.19;339054;29;1850;-70
2022/05/27 00:24:21;;;;;;;2.72;1.13;;;;;;;16.71;60.38;100076.28;338594;29;1615;-71
2022/05/27 00:24:33;;;;;;;2.42;1.08;;;;;;;16.70;60.18;100064.13;338781;29;1639;-70
2022/05/27 00:24:45;;;;;;;2.50;1.27;;;;;;;16.70;60.39;100069.38;339674;29;988;-70
2022/05/27 00:24:57;;;;;;;2.33;1.45;;;;;;;16.64;60.57;100064.44;339384;29;1240;-70
2022/05/27 00:25:10;;;;;;;3.07;1.60;;;;;;;16.63;60.51;100075.84;339460;29;1063;-70
2022/05/27 00:25:22;;;;;;;2.67;1.45;;;;;;;16.60;60.50;100072.50;338431;29;2246;-70
2022/05/27 00:25:34;;;;;;;2.47;1.20;;;;;;;16.55;60.65;100076.22;340995;28;1558;-71
2022/05/27 00:25:46;;;;;;;2.75;1.10;;;;;;;16.52;60.77;100070.28;340917;29;1075;-70
2022/05/27 00:25:58;;;;;;;3.65;1.20;;;;;;;16.56;60.73;100074.47;339275;29;1873;-70
2022/05/27 00:26:10;;;;;;;4.10;1.30;;;;;;;16.61;60.69;100069.81;338792;29;1163;-71
2022/05/27 00:26:22;;;;;;;3.70;1.38;;;;;;;16.61;60.76;100064.56;339984;29;1797;-71
2022/05/27 00:26:34;;;;;;;2.15;1.30;;;;;;;16.63;60.50;100073.22;339390;29;1805;-70
2022/05/27 00:26:47;;;;;;;1.90;1.20;;;;;;;16.57;60.71;100069.13;340832;29;1084;-71
2022/05/27 00:27:01;;;;;;;2.47;1.30;;;;;;;16.57;60.81;100074.38;340458;29;1257;-70
2022/05/27 00:27:13;;;;;;;2.38;1.50;;;;;;;16.52;60.96;100072.91;338552;29;1038;-71
2022/05/27 00:27:25;;;;;;;2.47;1.58;;;;;;;16.43;61.09;100076.00;336654;29;1541;-70
2022/05/27 00:27:37;;;;;;;3.10;1.42;;;;;;;16.50;61.25;100066.88;335820;29;1102;-70
2022/05/27 00:27:49;;;;;;;3.88;1.30;;;;;;;16.50;61.10;100066.88;335851;29;1206;-71
2022/05/27 00:28:01;;;;;;;3.65;1.20;;;;;;;16.51;60.82;100063.34;335899;29;1049;-70
2022/05/27 00:28:13;;;;;;;2.70;1.30;;;;;;;16.41;61.09;100072.59;335700;29;1148;-70
2022/05/27 00:28:26;;;;;;;3.25;1.30;;;;;;;16.46;61.09;100068.84;335288;29;1655;-70
2022/05/27 00:28:38;;;;;;;2.67;1.27;;;;;;;16.40;61.23;100066.53;334380;29;1262;-71
2022/05/27 00:28:53;;;;;;;2.78;1.45;;;;;;;16.50;61.18;100066.88;334623;29;1173;-70
2022/05/27 00:29:13;;;;;;;3.55;1.50;;;;;;;16.51;61.28;100069.44;334531;29;1586;-70
2022/05/27 00:29:25;;;;;;;3.28;1.50;;;;;;;16.51;61.06;100068.59;335549;29;1153;-70
2022/05/27 00:29:57;;;;;;;1.90;1.25;;;;;;;16.47;61.21;100069.69;335806;29;1887;-70
2022/05/27 00:30:14;;;;;;;3.30;1.30;;;;;;;16.47;61.24;100061.81;337882;29;1618;-68
2022/05/27 00:30:27;;;;;;;3.00;1.30;;;;;;;16.47;61.18;100067.88;338579;29;1457;-70
2022/05/27 00:30:39;;;;;;;2.47;1.30;;;;;;;16.47;61.19;100072.28;338256;29;1191;-70
2022/05/27 00:30:52;;;;;;;2.58;1.30;;;;;;;16.50;61.15;100066.88;338468;29;1007;-69
2022/05/27 00:31:05;;;;;;;2.28;1.20;;;;;;;16.48;61.10;100064.34;338731;29;771;-70
2022/05/27 00:31:20;;;;;;;2.35;1.10;;;;;;;16.52;61.08;100065.03;337711;29;2199;-70
2022/05/27 00:31:32;;;;;;;2.28;1.20;;;;;;;16.51;61.14;100068.59;339846;29;1404;-71
2022/05/27 00:31:44;;;;;;;2.53;1.30;;;;;;;16.51;61.24;100073.84;338724;29;747;-70
2022/05/27 00:31:56;;;;;;;2.33;1.20;;;;;;;16.46;61.37;100065.34;337998;29;1839;-70
2022/05/27 00:32:08;;;;;;;2.72;1.23;;;;;;;16.48;61.08;100069.59;336809;29;1027;-71
2022/05/27 00:32:21;;;;;;;2.92;1.48;;;;;;;16.51;61.08;100068.59;336913;29;1693;-71
2022/05/27 00:32:33;;;;;;;3.58;1.80;;;;;;;16.44;61.35;100064.56;338092;29;1906;-71
2022/05/27 00:32:45;;;;;;;3.08;1.63;;;;;;;16.44;61.14;100072.44;338383;29;1221;-70
2022/05/27 00:32:57;;;;;;;2.70;1.33;;;;;;;16.42;61.41;100063.78;338340;29;1016;-71
2022/05/27 00:33:10;;;;;;;2.33;1.23;;;;;;;16.36;61.51;100065.81;338321;29;2004;-70
2022/05/27 00:33:23;;;;;;;1.85;1.13;;;;;;;16.37;61.40;100067.50;338057;29;2033;-70
2022/05/27 00:33:37;;;;;;;2.38;1.20;;;;;;;16.41;61.58;100067.34;339584;29;1381;-70
2022/05/27 00:33:49;;;;;;;2.47;1.23;;;;;;;16.42;61.42;100069.03;339021;29;1945;-69
2022/05/27 00:34:01;;;;;;;1.75;1.17;;;;;;;16.43;61.35;100066.34;338947;29;1254;-69
2022/05/27 00:34:14;;;;;;;1.60;1.20;;;;;;;16.45;61.23;100069.75;337635;29;1848;-69
2022/05/27 00:34:26;;;;;;;1.77;1.30;;;;;;;16.47;61.41;100061.81;339101;29;1803;-70
2022/05/27 00:34:38;;;;;;;2.40;1.25;;;;;;;16.52;61.06;100065.03;338341;29;1036;-70
2022/05/27 00:34:50;;;;;;;2.83;1.33;;;;;;;16.55;61.07;100065.72;337793;29;1105;-71
2022/05/27 00:35:04;;;;;;;2.60;1.40;;;;;;;16.57;60.86;100063.03;338445;29;1248;-70
2022/05/27 00:35:17;;;;;;;2.38;1.30;;;;;;;16.53;60.81;100066.75;337593;29;1752;-70
2022/05/27 00:35:29;;;;;;;2.15;1.30;;;;;;;16.55;60.95;100064.88;338250;29;1678;-70
2022/05/27 00:35:41;;;;;;;2.50;1.30;;;;;;;16.55;61.01;100060.47;338208;29;1329;-70
2022/05/27 00:35:53;;;;;;;2.88;1.30;;;;;;;16.57;60.99;100065.66;337241;29;1084;-70
2022/05/27 00:36:08;;;;;;;3.42;1.35;;;;;;;16.59;60.73;100066.44;338412;29;1051;-70
2022/05/27 00:36:20;;;;;;;3.60;1.30;;;;;;;16.53;60.89;100072.00;337398;29;1743;-70
2022/05/27 00:36:33;;;;;;;2.90;1.30;;;;;;;16.51;61.03;100065.97;338353;29;1342;-71
2022/05/27 00:36:45;;;;;;;2.45;1.30;;;;;;;16.49;61.24;100071.28;338277;29;1228;-70
2022/05/27 00:36:57;;;;;;;2.38;1.30;;;;;;;16.50;61.10;100066.88;338311;29;1184;-70
2022/05/27 00:37:09;;;;;;;2.50;1.10;;;;;;;16.47;61.16;100069.69;338150;29;1069;-70
2022/05/27 00:37:21;;;;;;;3.53;1.30;;;;;;;16.51;61.20;100058.94;337717;29;1752;-69
2022/05/27 00:37:33;;;;;;;2.95;1.23;;;;;;;16.53;61.13;100064.13;338085;29;1388;-70
2022/05/27 00:37:46;;;;;;;3.33;1.30;;;;;;;16.51;61.02;100063.34;339437;29;1213;-70
2022/05/27 00:37:58;;;;;;;2.38;1.23;;;;;;;16.50;61.22;100067.75;337064;29;1662;-70
2022/05/27 00:38:10;;;;;;;1.98;1.20;;;;;;;16.48;61.23;100058.22;338567;29;1151;-70
2022/05/27 00:38:22;;;;;;;2.05;1.15;;;;;;;16.50;61.29;100064.25;337407;29;2335;-71
2022/05/27 00:38:34;;;;;;;2.15;1.10;;;;;;;16.52;61.13;100063.28;339328;29;1770;-70
2022/05/27 00:38:46;;;;;;;1.70;1.10;;;;;;;16.56;60.99;100056.94;338115;29;1036;-71
2022/05/27 00:39:00;;;;;;;1.63;1.08;;;;;;;16.56;61.39;100056.09;338086;29;1068;-71
2022/05/27 00:39:12;;;;;;;2.40;1.08;;;;;;;16.56;61.05;100056.94;338213;29;1172;-71
2022/05/27 00:39:24;;;;;;;3.17;1.23;;;;;;;16.56;60.96;100058.72;338649;29;1550;-70
2022/05/27 00:39:38;;;;;;;3.35;1.40;;;;;;;16.58;60.92;100060.34;340251;29;1239;-70
2022/05/27 00:39:50;;;;;;;3.25;1.60;;;;;;;16.59;60.69;100058.56;339444;29;1105;-70
2022/05/27 00:40:04;;;;;;;2.83;1.45;;;;;;;16.54;61.08;100063.16;339860;29;1157;-71
2022/05/27 00:40:18;;;;;;;2.28;1.42;;;;;;;16.56;60.92;100066.59;338922;29;1842;-70
2022/05/27 00:40:40;;;;;;;1.83;1.30;;;;;;;16.60;60.78;100057.66;339010;29;1404;-70
2022/05/27 00:40:53;;;;;;;1.60;1.00;;;;;;;16.56;61.12;100061.34;339022;29;866;-69
2022/05/27 00:41:06;;;;;;;3.33;1.30;;;;;;;16.51;60.80;100053.69;339187;29;1375;-69
2022/05/27 00:41:18;;;;;;;3.50;1.30;;;;;;;16.50;61.18;100059.00;338535;29;1509;-69
2022/05/27 00:41:30;;;;;;;2.95;1.20;;;;;;;16.51;61.13;100052.84;339623;29;1157;-70
2022/05/27 00:41:42;;;;;;;2.20;1.23;;;;;;;16.42;61.48;100053.31;336920;29;1080;-70
2022/05/27 00:41:54;;;;;;;3.10;1.42;;;;;;;16.43;61.48;100060.25;336912;29;1156;-70
2022/05/27 00:42:08;;;;;;;3.67;1.45;;;;;;;16.46;61.37;100060.09;336841;29;1194;-71
2022/05/27 00:42:19;;;;;;;3.88;1.30;;;;;;;16.40;61.48;100057.78;336966;29;1641;-70
2022/05/27 00:42:32;;;;;;;4.38;1.27;;;;;;;16.37;61.69;100056.16;338109;29;1619;-71
2022/05/27 00:42:46;;;;;;;4.80;1.30;;;;;;;16.40;61.39;100065.66;338325;29;1081;-70
2022/05/27 00:42:58;;;;;;;3.15;1.30;;;;;;;16.36;61.80;100054.47;336927;29;1096;-70
2022/05/27 00:43:10;;;;;;;2.83;1.30;;;;;;;16.40;61.39;100055.16;336809;29;1229;-70
2022/05/27 00:43:23;;;;;;;2.45;1.30;;;;;;;16.40;61.63;100056.03;336691;29;1824;-70
2022/05/27 00:43:38;;;;;;;3.72;1.35;;;;;;;16.40;61.65;100053.41;337834;29;1758;-70
2022/05/27 00:43:50;;;;;;;3.45;1.38;;;;;;;16.40;61.52;100056.03;337772;29;1171;-70
2022/05/27 00:44:03;;;;;;;2.72;1.40;;;;;;;16.43;61.63;100055.00;337964;29;1645;-70
2022/05/27 00:44:15;;;;;;;3.17;1.40;;;;;;;16.35;61.60;100053.59;337507;29;1744;-71
2022/05/27 00:44:27;;;;;;;3.20;1.45;;;;;;;16.40;61.42;100050.78;338555;29;1699;-71
2022/05/27 00:44:39;;;;;;;2.78;1.30;;;;;;;16.43;61.49;100057.63;338650;29;1101;-71
2022/05/27 00:44:51;;;;;;;1.90;1.30;;;;;;;16.43;61.52;100050.59;337343;29;1678;-71
2022/05/27 00:45:04;;;;;;;3.10;1.30;;;;;;;16.46;61.29;100058.34;337054;29;1553;-70
2022/05/27 00:45:20;;;;;;;3.15;1.30;;;;;;;16.44;61.44;100054.06;337228;29;1730;-70
2022/05/27 00:45:34;;;;;;;3.30;1.10;;;;;;;16.48;61.38;100053.00;339110;29;1136;-70
2022/05/27 00:45:57;;;;;;;3.00;1.10;;;;;;;16.51;61.00;100053.69;339337;29;2444;-70
2022/05/27 00:46:15;;;;;;;1.95;1.10;;;;;;;16.53;61.11;100056.25;337309;29;1435;-70
2022/05/27 00:46:30;;;;;;;3.20;1.20;;;;;;;16.51;61.38;100052.84;337069;29;1217;-70
2022/05/27 00:46:44;;;;;;;2.92;1.23;;;;;;;16.46;61.39;100054.84;338454;29;1066;-70
2022/05/27 00:47:13;;;;;;;2.30;1.23;;;;;;;16.46;61.45;100055.72;338500;29;987;-71
2022/05/27 00:47:31;;;;;;;2.88;1.20;;;;;;;16.43;61.58;100057.63;336825;29;1151;-70
2022/05/27 00:47:45;;;;;;;2.33;1.38;;;;;;;16.45;61.44;100058.41;336995;29;1105;-70
2022/05/27 00:47:57;;;;;;;4.15;1.40;;;;;;;16.47;61.52;100059.19;337006;29;1122;-71
2022/05/27 00:48:17;;;;;;;4.20;1.30;;;;;;;16.44;61.48;100051.44;338151;29;1295;-69
2022/05/27 00:48:32;;;;;;;2.97;1.30;;;;;;;16.38;61.41;100050.84;337152;29;1798;-71
2022/05/27 00:48:50;;;;;;;6.40;1.33;;;;;;;16.44;61.60;100057.56;340610;29;1167;-71
2022/05/27 00:49:12;;;;;;;5.82;1.50;;;;;;;16.37;61.78;100053.53;341104;29;1044;-70
2022/05/27 00:49:26;;;;;;;1.98;1.17;;;;;;;16.35;61.70;100051.00;338615;29;1914;-70
2022/05/27 00:49:45;;;;;;;2.15;1.17;;;;;;;16.41;61.56;100056.88;338879;29;1046;-70
2022/05/27 00:50:01;;;;;;;2.45;1.35;;;;;;;16.33;61.83;100044.97;339476;29;1013;-70
2022/05/27 00:50:16;;;;;;;2.22;1.40;;;;;;;16.38;61.69;100050.00;338112;29;1872;-70
2022/05/27 00:50:32;;;;;;;2.38;1.42;;;;;;;16.31;61.93;100051.22;339544;29;1469;-71
2022/05/27 00:50:47;;;;;;;2.65;1.50;;;;;;;16.32;61.82;100045.06;337384;29;862;-70
2022/05/27 00:50:59;;;;;;;1.83;1.33;;;;;;;16.35;61.72;100043.13;337493;29;1983;-71
2022/05/27 00:51:17;;;;;;;2.20;1.30;;;;;;;16.38;61.78;100052.63;336427;29;1768;-70
2022/05/27 00:51:34;;;;;;;2.88;1.30;;;;;;;16.45;61.46;100054.00;336397;29;1597;-70
2022/05/27 00:51:51;;;;;;;2.78;1.27;;;;;;;16.43;61.57;100047.13;335720;29;1136;-70
2022/05/27 00:52:11;;;;;;;2.75;1.25;;;;;;;16.35;61.76;100048.38;336045;29;1036;-69
2022/05/27 00:52:28;;;;;;;3.08;1.25;;;;;;;16.40;61.82;100040.28;337272;29;1935;-71
2022/05/27 00:52:42;;;;;;;3.17;1.10;;;;;;;16.45;61.55;100042.66;335982;29;1191;-70
2022/05/27 00:52:56;;;;;;;2.00;1.08;;;;;;;16.45;61.56;100047.91;339175;29;2023;-70
2022/05/27 00:53:12;;;;;;;2.90;1.30;;;;;;;16.51;61.52;100052.84;339496;29;1112;-70
2022/05/27 00:53:38;;;;;;;2.90;1.27;;;;;;;16.42;61.59;100045.44;338716;29;1790;-70
2022/05/27 00:54:07;;;;;;;2.75;1.05;;;;;;;16.35;61.95;100043.13;338563;29;920;-70
2022/05/27 00:54:23;;;;;;;2.00;1.10;;;;;;;16.42;61.65;100042.81;339797;29;2217;-70
2022/05/27 00:54:36;;;;;;;2.78;1.25;;;;;;;16.36;61.72;100042.22;339633;29;923;-71
2022/05/27 00:54:49;;;;;;;2.97;1.20;;;;;;;16.43;61.57;100039.28;340363;28;2072;-70
2022/05/27 00:55:04;;;;;;;3.13;1.27;;;;;;;16.42;61.74;100037.56;338953;29;1692;-70
2022/05/27 00:55:20;;;;;;;3.00;1.38;;;;;;;16.37;61.93;100041.25;339405;29;1148;-69
2022/05/27 00:55:40;;;;;;;2.90;1.23;;;;;;;16.42;61.95;100042.81;340842;29;1265;-70
2022/05/27 00:55:56;;;;;;;2.80;1.20;;;;;;;16.33;61.76;100039.72;339090;29;1065;-70
2022/05/27 00:56:13;;;;;;;2.47;1.20;;;;;;;16.38;61.76;100048.22;339220;29;1583;-71
2022/05/27 00:56:29;;;;;;;1.77;1.23;;;;;;;16.35;61.90;100044.91;339354;29;1644;-70
2022/05/27 00:56:45;;;;;;;2.65;1.40;;;;;;;16.36;61.96;100044.84;338445;29;1145;-70
2022/05/27 00:57:03;;;;;;;2.63;1.40;;;;;;;16.37;61.88;100046.50;338170;29;1079;-71
2022/05/27 00:57:17;;;;;;;3.38;1.30;;;;;;;16.35;61.90;100043.13;339591;29;1045;-70
2022/05/27 00:57:36;;;;;;;3.85;1.70;;;;;;;16.35;61.87;100037.88;339855;28;1300;-70
2022/05/27 00:58:07;;;;;;;3.17;1.55;;;;;;;16.35;62.12;100043.13;338520;29;1066;-70
2022/05/27 00:58:29;;;;;;;3.28;1.25;;;;;;;16.37;62.03;100049.13;337823;29;1915;-69
2022/05/27 00:58:48;;;;;;;2.28;1.23;;;;;;;16.43;61.79;100052.38;338318;29;1410;-70
2022/05/27 00:59:04;;;;;;;4.25;1.38;;;;;;;16.42;61.74;100043.69;338652;29;859;-70
2022/05/27 00:59:22;;;;;;;4.90;1.30;;;;;;;16.45;62.05;100048.75;337463;29;1777;-69
2022/05/27 00:59:54;;;;;;;2.40;1.40;;;;;;;16.40;61.86;100042.03;338230;29;1644;-71
2022/05/27 01:00:12;;;;;;;2.90;1.20;;;;;;;16.37;62.13;100046.50;339939;29;1052;-70
2022/05/27 01:00:25;;;;;;;2.40;1.20;;;;;;;16.40;61.92;100050.78;338956;29;1817;-70
2022/05/27 01:00:38;;;;;;;2.50;1.20;;;;;;;16.33;62.05;100034.47;339752;29;1648;-71
2022/05/27 01:00:51;;;;;;;2.42;1.10;;;;;;;16.38;62.04;100042.97;339472;29;1061;-70
2022/05/27 01:01:07;;;;;;;2.58;1.15;;;;;;;16.33;62.07;100050.22;338425;29;1048;-70
2022/05/27 01:01:19;;;;;;;3.00;1.30;;;;;;;16.25;62.44;100041.03;337333;29;1886;-71
2022/05/27 01:01:31;;;;;;;3.00;1.35;;;;;;;16.29;62.31;100040.81;338393;29;1254;-70
2022/05/27 01:01:44;;;;;;;2.90;1.20;;;;;;;16.30;62.28;100044.28;336664;29;1294;-70
2022/05/27 01:01:58;;;;;;;2.72;1.20;;;;;;;16.31;62.35;100043.34;337271;29;816;-70
2022/05/27 01:02:10;;;;;;;4.03;1.40;;;;;;;16.25;62.63;100046.28;338175;29;2213;-70
2022/05/27 01:02:22;;;;;;;4.07;1.30;;;;;;;16.24;63.04;100039.31;337230;29;1621;-70
2022/05/27 01:02:35;;;;;;;2.88;1.20;;;;;;;16.23;62.52;100048.97;338269;29;1468;-71
2022/05/27 01:02:48;;;;;;;1.90;1.20;;;;;;;16.26;62.54;100045.34;337804;29;1595;-69
2022/05/27 01:03:01;;;;;;;1.83;1.23;;;;;;;16.27;62.53;100041.81;337468;29;1818;-69
2022/05/27 01:03:16;;;;;;;1.95;1.20;;;;;;;16.30;62.46;100042.50;339332;29;1552;-70
2022/05/27 01:03:31;;;;;;;2.40;1.20;;;;;;;16.32;62.57;100051.16;339721;29;1153;-70
2022/05/27 01:03:44;;;;;;;3.05;1.30;;;;;;;16.32;62.49;100048.53;339371;29;1833;-69
2022/05/27 01:03:57;;;;;;;2.95;1.20;;;;;;;16.23;62.52;100038.47;338147;29;1165;-69
2022/05/27 01:04:10;;;;;;;3.17;1.42;;;;;;;16.29;62.64;100040.81;337228;29;1874;-69
2022/05/27 01:04:23;;;;;;;2.88;1.50;;;;;;;16.27;62.14;100040.03;337715;29;1767;-70
2022/05/27 01:04:36;;;;;;;2.78;1.35;;;;;;;16.30;62.42;100039.06;338581;29;1009;-70
2022/05/27 01:04:49;;;;;;;3.03;1.42;;;;;;;16.32;62.40;100043.28;337774;29;1842;-70
2022/05/27 01:05:04;;;;;;;3.67;1.45;;;;;;;16.38;62.18;100042.97;337931;29;1556;-70